sensor_id;sensor_type;location;lat;lon;timestamp;P1;durP1;ratioP1;P2;durP2;ratioP2
64459;SDS011;50828;53.756;21.140;2023-02-10T00:01:42;40.40;;;16.50;;
64459;SDS011;50828;53.756;21.140;2023-02-10T00:06:49;44.60;;;17.30;;
64459;SDS011;50828;53.756;21.140;2023-02-10T00:11:57;37.00;;;15.40;;
64459;SDS011;50828;53.756;21.140;2023-02-10T00:17:05;38.30;;;15.20;;
64459;SDS011;50828;53.756;21.140;2023-02-10T00:22:13;40.80;;;17.10;;
64459;SDS011;50828;53.756;21.140;2023-02-10T00:27:20;38.40;;;16.10;;
64459;SDS011;50828;53.756;21.140;2023-02-10T00:32:27;36.00;;;16.20;;
64459;SDS011;50828;53.756;21.140;2023-02-10T00:37:35;37.50;;;16.60;;
64459;SDS011;50828;53.756;21.140;2023-02-10T00:42:42;42.60;;;16.40;;
64459;SDS011;50828;53.756;21.140;2023-02-10T00:47:50;37.90;;;15.40;;
64459;SDS011;50828;53.756;21.140;2023-02-10T00:52:58;30.40;;;14.40;;
64459;SDS011;50828;53.756;21.140;2023-02-10T00:58:05;35.40;;;14.10;;
64459;SDS011;50828;53.756;21.140;2023-02-10T01:03:12;38.70;;;13.60;;
64459;SDS011;50828;53.756;21.140;2023-02-10T01:08:20;33.10;;;14.20;;
64459;SDS011;50828;53.756;21.140;2023-02-10T01:13:29;29.10;;;12.30;;
64459;SDS011;50828;53.756;21.140;2023-02-10T01:18:38;31.20;;;12.60;;
64459;SDS011;50828;53.756;21.140;2023-02-10T01:23:46;34.10;;;12.30;;
64459;SDS011;50828;53.756;21.140;2023-02-10T01:28:54;25.90;;;12.50;;
64459;SDS011;50828;53.756;21.140;2023-02-10T01:34:01;25.60;;;10.30;;
64459;SDS011;50828;53.756;21.140;2023-02-10T01:39:12;28.90;;;11.60;;
64459;SDS011;50828;53.756;21.140;2023-02-10T01:50:02;25.40;;;10.20;;
64459;SDS011;50828;53.756;21.140;2023-02-10T01:55:10;22.20;;;9.40;;
64459;SDS011;50828;53.756;21.140;2023-02-10T02:00:22;25.70;;;9.30;;
64459;SDS011;50828;53.756;21.140;2023-02-10T02:05:33;26.90;;;11.40;;
64459;SDS011;50828;53.756;21.140;2023-02-10T02:10:50;30.50;;;12.20;;
64459;SDS011;50828;53.756;21.140;2023-02-10T02:16:05;30.60;;;12.70;;
64459;SDS011;50828;53.756;21.140;2023-02-10T02:27:07;30.10;;;13.80;;
64459;SDS011;50828;53.756;21.140;2023-02-10T02:32:34;32.40;;;12.90;;
64459;SDS011;50828;53.756;21.140;2023-02-10T02:37:49;32.70;;;13.50;;
64459;SDS011;50828;53.756;21.140;2023-02-10T02:42:57;32.50;;;13.90;;
64459;SDS011;50828;53.756;21.140;2023-02-10T02:48:07;35.00;;;13.70;;
64459;SDS011;50828;53.756;21.140;2023-02-10T02:53:27;31.60;;;13.50;;
64459;SDS011;50828;53.756;21.140;2023-02-10T02:58:42;32.30;;;13.80;;
64459;SDS011;50828;53.756;21.140;2023-02-10T03:03:56;34.10;;;13.30;;
64459;SDS011;50828;53.756;21.140;2023-02-10T03:14:15;31.10;;;12.80;;
64459;SDS011;50828;53.756;21.140;2023-02-10T03:19:23;30.70;;;13.40;;
64459;SDS011;50828;53.756;21.140;2023-02-10T03:24:31;35.20;;;14.20;;
64459;SDS011;50828;53.756;21.140;2023-02-10T03:29:39;28.80;;;11.10;;
64459;SDS011;50828;53.756;21.140;2023-02-10T03:34:47;31.00;;;12.80;;
64459;SDS011;50828;53.756;21.140;2023-02-10T03:39:55;33.20;;;13.30;;
64459;SDS011;50828;53.756;21.140;2023-02-10T03:45:03;29.30;;;12.30;;
64459;SDS011;50828;53.756;21.140;2023-02-10T03:50:11;24.90;;;11.60;;
64459;SDS011;50828;53.756;21.140;2023-02-10T03:55:18;26.80;;;12.60;;
64459;SDS011;50828;53.756;21.140;2023-02-10T04:00:26;31.00;;;12.70;;
64459;SDS011;50828;53.756;21.140;2023-02-10T04:05:34;27.20;;;11.90;;
64459;SDS011;50828;53.756;21.140;2023-02-10T04:10:42;30.10;;;13.00;;
64459;SDS011;50828;53.756;21.140;2023-02-10T04:15:50;28.20;;;12.10;;
64459;SDS011;50828;53.756;21.140;2023-02-10T04:21:07;24.10;;;11.40;;
64459;SDS011;50828;53.756;21.140;2023-02-10T04:26:16;26.40;;;11.70;;
64459;SDS011;50828;53.756;21.140;2023-02-10T04:31:23;30.10;;;11.00;;
64459;SDS011;50828;53.756;21.140;2023-02-10T04:36:31;28.70;;;12.30;;
64459;SDS011;50828;53.756;21.140;2023-02-10T04:41:38;28.20;;;13.10;;
64459;SDS011;50828;53.756;21.140;2023-02-10T04:46:46;24.40;;;11.70;;
64459;SDS011;50828;53.756;21.140;2023-02-10T04:51:55;28.10;;;12.90;;
64459;SDS011;50828;53.756;21.140;2023-02-10T04:57:02;19.30;;;8.80;;
64459;SDS011;50828;53.756;21.140;2023-02-10T05:02:10;23.20;;;10.50;;
64459;SDS011;50828;53.756;21.140;2023-02-10T05:07:18;24.80;;;9.20;;
64459;SDS011;50828;53.756;21.140;2023-02-10T05:12:25;19.70;;;8.80;;
64459;SDS011;50828;53.756;21.140;2023-02-10T05:17:33;20.60;;;9.90;;
64459;SDS011;50828;53.756;21.140;2023-02-10T05:22:41;29.90;;;10.60;;
64459;SDS011;50828;53.756;21.140;2023-02-10T05:27:48;26.50;;;10.80;;
64459;SDS011;50828;53.756;21.140;2023-02-10T05:32:55;22.20;;;9.90;;
64459;SDS011;50828;53.756;21.140;2023-02-10T05:38:03;22.70;;;11.10;;
64459;SDS011;50828;53.756;21.140;2023-02-10T05:43:10;20.90;;;10.60;;
64459;SDS011;50828;53.756;21.140;2023-02-10T05:48:18;25.20;;;9.90;;
64459;SDS011;50828;53.756;21.140;2023-02-10T05:53:26;22.80;;;9.20;;
64459;SDS011;50828;53.756;21.140;2023-02-10T05:58:33;22.80;;;8.60;;
64459;SDS011;50828;53.756;21.140;2023-02-10T06:03:41;17.10;;;8.20;;
64459;SDS011;50828;53.756;21.140;2023-02-10T06:08:48;21.30;;;8.50;;
64459;SDS011;50828;53.756;21.140;2023-02-10T06:13:55;18.10;;;8.20;;
64459;SDS011;50828;53.756;21.140;2023-02-10T06:19:03;18.20;;;8.40;;
64459;SDS011;50828;53.756;21.140;2023-02-10T06:24:10;15.40;;;5.80;;
64459;SDS011;50828;53.756;21.140;2023-02-10T06:29:18;18.20;;;8.40;;
64459;SDS011;50828;53.756;21.140;2023-02-10T06:34:26;21.50;;;9.50;;
64459;SDS011;50828;53.756;21.140;2023-02-10T06:39:33;20.30;;;8.00;;
64459;SDS011;50828;53.756;21.140;2023-02-10T06:44:41;18.20;;;7.60;;
64459;SDS011;50828;53.756;21.140;2023-02-10T06:49:48;16.70;;;7.40;;
64459;SDS011;50828;53.756;21.140;2023-02-10T06:54:55;18.70;;;7.90;;
64459;SDS011;50828;53.756;21.140;2023-02-10T07:00:03;20.30;;;8.70;;
64459;SDS011;50828;53.756;21.140;2023-02-10T07:05:13;20.20;;;8.80;;
64459;SDS011;50828;53.756;21.140;2023-02-10T07:10:21;19.40;;;8.40;;
64459;SDS011;50828;53.756;21.140;2023-02-10T07:15:28;17.80;;;7.50;;
64459;SDS011;50828;53.756;21.140;2023-02-10T07:20:36;19.20;;;8.70;;
64459;SDS011;50828;53.756;21.140;2023-02-10T07:25:44;20.50;;;8.60;;
64459;SDS011;50828;53.756;21.140;2023-02-10T07:30:52;18.80;;;7.70;;
64459;SDS011;50828;53.756;21.140;2023-02-10T07:36:00;19.70;;;9.70;;
64459;SDS011;50828;53.756;21.140;2023-02-10T07:41:08;20.40;;;7.90;;
64459;SDS011;50828;53.756;21.140;2023-02-10T07:46:16;17.00;;;7.70;;
64459;SDS011;50828;53.756;21.140;2023-02-10T07:51:23;20.90;;;7.20;;
64459;SDS011;50828;53.756;21.140;2023-02-10T07:56:31;20.50;;;9.20;;
64459;SDS011;50828;53.756;21.140;2023-02-10T08:01:39;20.90;;;8.20;;
64459;SDS011;50828;53.756;21.140;2023-02-10T08:06:47;19.30;;;9.10;;
64459;SDS011;50828;53.756;21.140;2023-02-10T08:11:56;20.00;;;9.60;;
64459;SDS011;50828;53.756;21.140;2023-02-10T08:17:03;20.40;;;8.40;;
64459;SDS011;50828;53.756;21.140;2023-02-10T08:22:11;17.80;;;7.90;;
64459;SDS011;50828;53.756;21.140;2023-02-10T08:27:18;24.10;;;10.00;;
64459;SDS011;50828;53.756;21.140;2023-02-10T08:32:26;17.10;;;7.50;;
64459;SDS011;50828;53.756;21.140;2023-02-10T08:37:33;20.80;;;9.60;;
64459;SDS011;50828;53.756;21.140;2023-02-10T08:42:41;25.10;;;9.90;;
64459;SDS011;50828;53.756;21.140;2023-02-10T08:47:49;21.70;;;9.30;;
64459;SDS011;50828;53.756;21.140;2023-02-10T08:52:56;22.30;;;10.20;;
64459;SDS011;50828;53.756;21.140;2023-02-10T08:58:03;20.60;;;8.60;;
64459;SDS011;50828;53.756;21.140;2023-02-10T09:03:11;23.70;;;9.40;;
64459;SDS011;50828;53.756;21.140;2023-02-10T09:08:19;22.50;;;8.10;;
64459;SDS011;50828;53.756;21.140;2023-02-10T09:13:26;25.90;;;10.60;;
64459;SDS011;50828;53.756;21.140;2023-02-10T09:18:34;23.30;;;9.80;;
64459;SDS011;50828;53.756;21.140;2023-02-10T09:23:42;23.40;;;9.70;;
64459;SDS011;50828;53.756;21.140;2023-02-10T09:28:49;27.10;;;10.40;;
64459;SDS011;50828;53.756;21.140;2023-02-10T09:33:57;16.80;;;7.40;;
64459;SDS011;50828;53.756;21.140;2023-02-10T09:39:05;33.90;;;12.20;;
64459;SDS011;50828;53.756;21.140;2023-02-10T09:44:13;26.30;;;10.60;;
64459;SDS011;50828;53.756;21.140;2023-02-10T09:49:33;30.50;;;13.70;;
64459;SDS011;50828;53.756;21.140;2023-02-10T09:54:57;27.40;;;10.60;;
64459;SDS011;50828;53.756;21.140;2023-02-10T10:00:11;33.80;;;12.20;;
64459;SDS011;50828;53.756;21.140;2023-02-10T10:05:36;39.60;;;10.70;;
64459;SDS011;50828;53.756;21.140;2023-02-10T10:10:52;24.40;;;9.70;;
64459;SDS011;50828;53.756;21.140;2023-02-10T10:16:12;33.40;;;12.30;;
64459;SDS011;50828;53.756;21.140;2023-02-10T10:21:28;37.90;;;13.30;;
64459;SDS011;50828;53.756;21.140;2023-02-10T10:26:45;26.70;;;10.10;;
64459;SDS011;50828;53.756;21.140;2023-02-10T10:32:15;37.20;;;13.10;;
64459;SDS011;50828;53.756;21.140;2023-02-10T10:37:33;31.70;;;11.50;;
64459;SDS011;50828;53.756;21.140;2023-02-10T10:42:41;31.90;;;12.10;;
64459;SDS011;50828;53.756;21.140;2023-02-10T10:47:52;25.80;;;10.70;;
64459;SDS011;50828;53.756;21.140;2023-02-10T10:53:11;30.40;;;11.90;;
64459;SDS011;50828;53.756;21.140;2023-02-10T10:58:24;38.90;;;12.10;;
64459;SDS011;50828;53.756;21.140;2023-02-10T11:03:35;40.60;;;15.60;;
64459;SDS011;50828;53.756;21.140;2023-02-10T11:08:45;36.40;;;14.00;;
64459;SDS011;50828;53.756;21.140;2023-02-10T11:13:59;37.90;;;14.70;;
64459;SDS011;50828;53.756;21.140;2023-02-10T11:19:15;32.20;;;12.40;;
64459;SDS011;50828;53.756;21.140;2023-02-10T11:24:25;38.80;;;13.00;;
64459;SDS011;50828;53.756;21.140;2023-02-10T11:29:39;39.90;;;12.30;;
64459;SDS011;50828;53.756;21.140;2023-02-10T11:34:52;78.00;;;31.20;;
64459;SDS011;50828;53.756;21.140;2023-02-10T11:40:03;57.70;;;21.10;;
64459;SDS011;50828;53.756;21.140;2023-02-10T11:45:23;32.60;;;12.80;;
64459;SDS011;50828;53.756;21.140;2023-02-10T11:50:33;30.80;;;10.50;;
64459;SDS011;50828;53.756;21.140;2023-02-10T11:55:43;26.90;;;10.20;;
64459;SDS011;50828;53.756;21.140;2023-02-10T12:01:01;29.50;;;11.30;;
64459;SDS011;50828;53.756;21.140;2023-02-10T12:06:17;27.80;;;9.50;;
64459;SDS011;50828;53.756;21.140;2023-02-10T12:11:42;26.50;;;8.90;;
64459;SDS011;50828;53.756;21.140;2023-02-10T12:16:59;27.20;;;8.10;;
64459;SDS011;50828;53.756;21.140;2023-02-10T12:22:21;21.70;;;7.90;;
64459;SDS011;50828;53.756;21.140;2023-02-10T12:27:45;26.20;;;7.60;;
64459;SDS011;50828;53.756;21.140;2023-02-10T12:33:05;19.30;;;6.40;;
64459;SDS011;50828;53.756;21.140;2023-02-10T12:38:35;20.20;;;7.20;;
64459;SDS011;50828;53.756;21.140;2023-02-10T12:44:02;20.30;;;7.40;;
64459;SDS011;50828;53.756;21.140;2023-02-10T12:49:22;21.60;;;6.80;;
64459;SDS011;50828;53.756;21.140;2023-02-10T12:54:42;15.80;;;6.80;;
64459;SDS011;50828;53.756;21.140;2023-02-10T12:59:56;20.00;;;6.80;;
64459;SDS011;50828;53.756;21.140;2023-02-10T13:05:10;19.10;;;6.80;;
64459;SDS011;50828;53.756;21.140;2023-02-10T13:10:22;23.20;;;7.30;;
64459;SDS011;50828;53.756;21.140;2023-02-10T13:15:37;19.40;;;7.20;;
64459;SDS011;50828;53.756;21.140;2023-02-10T13:20:51;19.40;;;8.00;;
64459;SDS011;50828;53.756;21.140;2023-02-10T13:26:19;27.70;;;8.70;;
64459;SDS011;50828;53.756;21.140;2023-02-10T13:31:46;21.60;;;9.10;;
64459;SDS011;50828;53.756;21.140;2023-02-10T13:37:05;24.40;;;8.70;;
64459;SDS011;50828;53.756;21.140;2023-02-10T13:42:20;16.40;;;6.60;;
64459;SDS011;50828;53.756;21.140;2023-02-10T13:47:34;23.30;;;9.40;;
64459;SDS011;50828;53.756;21.140;2023-02-10T13:52:49;25.60;;;9.00;;
64459;SDS011;50828;53.756;21.140;2023-02-10T13:58:13;23.30;;;9.60;;
64459;SDS011;50828;53.756;21.140;2023-02-10T14:03:31;30.00;;;10.00;;
64459;SDS011;50828;53.756;21.140;2023-02-10T14:08:40;28.00;;;10.10;;
64459;SDS011;50828;53.756;21.140;2023-02-10T14:14:03;29.10;;;10.40;;
64459;SDS011;50828;53.756;21.140;2023-02-10T14:19:23;32.20;;;11.80;;
64459;SDS011;50828;53.756;21.140;2023-02-10T14:24:42;26.70;;;10.60;;
64459;SDS011;50828;53.756;21.140;2023-02-10T14:29:55;22.70;;;10.40;;
64459;SDS011;50828;53.756;21.140;2023-02-10T14:35:17;22.10;;;8.70;;
64459;SDS011;50828;53.756;21.140;2023-02-10T14:40:32;32.30;;;11.90;;
64459;SDS011;50828;53.756;21.140;2023-02-10T14:45:42;26.50;;;10.20;;
64459;SDS011;50828;53.756;21.140;2023-02-10T14:50:59;31.50;;;10.50;;
64459;SDS011;50828;53.756;21.140;2023-02-10T14:56:18;27.70;;;10.70;;
64459;SDS011;50828;53.756;21.140;2023-02-10T15:01:29;27.00;;;10.80;;
64459;SDS011;50828;53.756;21.140;2023-02-10T15:06:39;24.20;;;10.40;;
64459;SDS011;50828;53.756;21.140;2023-02-10T15:11:52;26.20;;;9.90;;
64459;SDS011;50828;53.756;21.140;2023-02-10T15:17:21;26.70;;;9.20;;
64459;SDS011;50828;53.756;21.140;2023-02-10T15:22:38;27.30;;;10.00;;
64459;SDS011;50828;53.756;21.140;2023-02-10T15:27:48;27.90;;;9.50;;
64459;SDS011;50828;53.756;21.140;2023-02-10T15:32:56;29.80;;;10.20;;
64459;SDS011;50828;53.756;21.140;2023-02-10T15:38:07;27.80;;;9.80;;
64459;SDS011;50828;53.756;21.140;2023-02-10T15:48:30;19.90;;;9.00;;
64459;SDS011;50828;53.756;21.140;2023-02-10T15:58:48;28.50;;;8.50;;
64459;SDS011;50828;53.756;21.140;2023-02-10T16:03:55;22.50;;;10.30;;
64459;SDS011;50828;53.756;21.140;2023-02-10T16:09:05;33.90;;;10.20;;
64459;SDS011;50828;53.756;21.140;2023-02-10T16:14:15;33.90;;;11.70;;
64459;SDS011;50828;53.756;21.140;2023-02-10T16:19:23;29.20;;;10.00;;
64459;SDS011;50828;53.756;21.140;2023-02-10T16:24:32;32.40;;;10.30;;
64459;SDS011;50828;53.756;21.140;2023-02-10T16:29:40;33.80;;;9.90;;
64459;SDS011;50828;53.756;21.140;2023-02-10T16:34:48;28.40;;;10.30;;
64459;SDS011;50828;53.756;21.140;2023-02-10T16:39:56;27.90;;;9.80;;
64459;SDS011;50828;53.756;21.140;2023-02-10T16:45:04;29.10;;;10.00;;
64459;SDS011;50828;53.756;21.140;2023-02-10T16:50:17;31.10;;;9.70;;
64459;SDS011;50828;53.756;21.140;2023-02-10T16:55:30;29.60;;;9.80;;
64459;SDS011;50828;53.756;21.140;2023-02-10T17:00:38;26.60;;;9.60;;
64459;SDS011;50828;53.756;21.140;2023-02-10T17:05:46;33.60;;;9.90;;
64459;SDS011;50828;53.756;21.140;2023-02-10T17:10:55;30.00;;;9.30;;
64459;SDS011;50828;53.756;21.140;2023-02-10T17:16:03;31.10;;;9.90;;
64459;SDS011;50828;53.756;21.140;2023-02-10T17:21:12;32.40;;;9.60;;
64459;SDS011;50828;53.756;21.140;2023-02-10T17:26:19;28.20;;;10.80;;
64459;SDS011;50828;53.756;21.140;2023-02-10T17:31:27;30.50;;;10.60;;
64459;SDS011;50828;53.756;21.140;2023-02-10T17:36:35;42.90;;;12.20;;
64459;SDS011;50828;53.756;21.140;2023-02-10T17:41:44;25.00;;;9.30;;
64459;SDS011;50828;53.756;21.140;2023-02-10T17:46:52;26.40;;;10.30;;
64459;SDS011;50828;53.756;21.140;2023-02-10T17:52:01;28.10;;;10.60;;
64459;SDS011;50828;53.756;21.140;2023-02-10T17:57:10;25.40;;;10.20;;
64459;SDS011;50828;53.756;21.140;2023-02-10T18:02:19;32.90;;;11.70;;
64459;SDS011;50828;53.756;21.140;2023-02-10T18:07:27;27.30;;;11.20;;
64459;SDS011;50828;53.756;21.140;2023-02-10T18:12:35;30.90;;;12.30;;
64459;SDS011;50828;53.756;21.140;2023-02-10T18:17:43;34.70;;;13.90;;
64459;SDS011;50828;53.756;21.140;2023-02-10T18:22:51;23.20;;;10.10;;
64459;SDS011;50828;53.756;21.140;2023-02-10T18:27:59;35.30;;;12.60;;
64459;SDS011;50828;53.756;21.140;2023-02-10T18:33:07;35.10;;;12.90;;
64459;SDS011;50828;53.756;21.140;2023-02-10T18:38:17;45.10;;;14.10;;
64459;SDS011;50828;53.756;21.140;2023-02-10T18:43:25;34.00;;;13.30;;
64459;SDS011;50828;53.756;21.140;2023-02-10T18:48:33;39.00;;;13.70;;
64459;SDS011;50828;53.756;21.140;2023-02-10T18:53:41;40.50;;;13.00;;
64459;SDS011;50828;53.756;21.140;2023-02-10T18:58:49;36.90;;;12.80;;
64459;SDS011;50828;53.756;21.140;2023-02-10T19:03:57;32.40;;;12.20;;
64459;SDS011;50828;53.756;21.140;2023-02-10T19:09:06;33.90;;;14.50;;
64459;SDS011;50828;53.756;21.140;2023-02-10T19:14:14;34.10;;;13.40;;
64459;SDS011;50828;53.756;21.140;2023-02-10T19:19:25;43.20;;;14.30;;
64459;SDS011;50828;53.756;21.140;2023-02-10T19:24:34;44.00;;;14.50;;
64459;SDS011;50828;53.756;21.140;2023-02-10T19:29:43;40.90;;;15.50;;
64459;SDS011;50828;53.756;21.140;2023-02-10T19:34:50;39.00;;;16.00;;
64459;SDS011;50828;53.756;21.140;2023-02-10T19:39:58;45.10;;;16.10;;
64459;SDS011;50828;53.756;21.140;2023-02-10T19:45:07;39.70;;;14.90;;
64459;SDS011;50828;53.756;21.140;2023-02-10T19:50:16;41.40;;;16.20;;
64459;SDS011;50828;53.756;21.140;2023-02-10T19:55:23;37.60;;;14.30;;
64459;SDS011;50828;53.756;21.140;2023-02-10T20:00:31;36.50;;;14.00;;
64459;SDS011;50828;53.756;21.140;2023-02-10T20:05:39;39.00;;;13.90;;
64459;SDS011;50828;53.756;21.140;2023-02-10T20:10:50;31.80;;;12.80;;
64459;SDS011;50828;53.756;21.140;2023-02-10T20:15:59;34.80;;;13.90;;
64459;SDS011;50828;53.756;21.140;2023-02-10T20:21:10;38.40;;;12.40;;
64459;SDS011;50828;53.756;21.140;2023-02-10T20:26:18;34.90;;;13.80;;
64459;SDS011;50828;53.756;21.140;2023-02-10T20:31:26;39.00;;;14.90;;
64459;SDS011;50828;53.756;21.140;2023-02-10T20:36:35;36.70;;;13.90;;
64459;SDS011;50828;53.756;21.140;2023-02-10T20:41:43;44.40;;;14.40;;
64459;SDS011;50828;53.756;21.140;2023-02-10T20:46:51;41.00;;;14.80;;
64459;SDS011;50828;53.756;21.140;2023-02-10T20:51:59;38.40;;;14.60;;
64459;SDS011;50828;53.756;21.140;2023-02-10T20:57:08;36.60;;;14.10;;
64459;SDS011;50828;53.756;21.140;2023-02-10T21:02:19;39.70;;;15.40;;
64459;SDS011;50828;53.756;21.140;2023-02-10T21:07:29;39.60;;;14.50;;
64459;SDS011;50828;53.756;21.140;2023-02-10T21:12:37;37.00;;;14.20;;
64459;SDS011;50828;53.756;21.140;2023-02-10T21:17:44;35.80;;;15.20;;
64459;SDS011;50828;53.756;21.140;2023-02-10T21:22:52;45.80;;;14.10;;
64459;SDS011;50828;53.756;21.140;2023-02-10T21:28:00;33.90;;;14.00;;
64459;SDS011;50828;53.756;21.140;2023-02-10T21:33:09;36.40;;;13.90;;
64459;SDS011;50828;53.756;21.140;2023-02-10T21:38:16;30.30;;;13.30;;
64459;SDS011;50828;53.756;21.140;2023-02-10T21:43:24;31.50;;;12.40;;
64459;SDS011;50828;53.756;21.140;2023-02-10T21:48:32;36.10;;;13.60;;
64459;SDS011;50828;53.756;21.140;2023-02-10T21:53:40;35.70;;;13.10;;
64459;SDS011;50828;53.756;21.140;2023-02-10T21:58:48;35.70;;;12.70;;
64459;SDS011;50828;53.756;21.140;2023-02-10T22:03:56;40.40;;;13.50;;
64459;SDS011;50828;53.756;21.140;2023-02-10T22:09:04;34.40;;;12.60;;
64459;SDS011;50828;53.756;21.140;2023-02-10T22:14:14;31.80;;;13.00;;
64459;SDS011;50828;53.756;21.140;2023-02-10T22:19:21;37.30;;;13.70;;
64459;SDS011;50828;53.756;21.140;2023-02-10T22:24:29;38.70;;;13.70;;
64459;SDS011;50828;53.756;21.140;2023-02-10T22:29:37;37.10;;;12.70;;
64459;SDS011;50828;53.756;21.140;2023-02-10T22:39:53;42.40;;;13.10;;
64459;SDS011;50828;53.756;21.140;2023-02-10T22:45:01;34.20;;;12.10;;
64459;SDS011;50828;53.756;21.140;2023-02-10T22:50:09;34.20;;;11.40;;
64459;SDS011;50828;53.756;21.140;2023-02-10T22:55:17;27.80;;;10.60;;
64459;SDS011;50828;53.756;21.140;2023-02-10T23:00:25;39.20;;;12.10;;
64459;SDS011;50828;53.756;21.140;2023-02-10T23:05:34;30.20;;;11.20;;
64459;SDS011;50828;53.756;21.140;2023-02-10T23:10:42;24.20;;;7.70;;
64459;SDS011;50828;53.756;21.140;2023-02-10T23:15:51;31.60;;;11.60;;
64459;SDS011;50828;53.756;21.140;2023-02-10T23:21:06;30.20;;;12.30;;
64459;SDS011;50828;53.756;21.140;2023-02-10T23:26:15;35.80;;;12.70;;
64459;SDS011;50828;53.756;21.140;2023-02-10T23:31:28;43.50;;;14.90;;
64459;SDS011;50828;53.756;21.140;2023-02-10T23:36:37;35.90;;;15.00;;
64459;SDS011;50828;53.756;21.140;2023-02-10T23:41:46;43.50;;;16.10;;
64459;SDS011;50828;53.756;21.140;2023-02-10T23:46:54;48.20;;;16.90;;
64459;SDS011;50828;53.756;21.140;2023-02-10T23:52:02;54.20;;;18.20;;
64459;SDS011;50828;53.756;21.140;2023-02-10T23:57:11;43.50;;;16.90;;
